Time;durP1;ratioP1;P1;durP2;ratioP2;P2;SDS_P1;SDS_P2;PMS_P1;PMS_P2;Temp;Humidity;BMP_temperature;BMP_pressure;BME280_temperature;BME280_humidity;BME280_pressure;Samples;Min_cycle;Max_cycle;Signal;HPM_P1;HPM_P2
2022/07/25 00:00:41;;;;;;;0.10;0.10;;;;;;;;;;5091304;28;20059;-86
2022/07/25 00:03:07;;;;;;;0.10;0.10;;;;;;;;;;5091064;28;20519;-87
2022/07/25 00:05:33;;;;;;;0.10;0.10;;;;;;;;;;5090730;28;20583;-85
2022/07/25 00:07:59;;;;;;;0.10;0.10;;;;;;;;;;5090890;28;20020;-86
2022/07/25 00:10:25;;;;;;;0.13;0.13;;;;;;;;;;5090709;28;20062;-86
2022/07/25 00:12:51;;;;;;;0.10;0.10;;;;;;;;;;5090903;28;20091;-86
2022/07/25 00:15:17;;;;;;;0.10;0.10;;;;;;;;;;5091705;28;20028;-86
2022/07/25 00:17:43;;;;;;;0.10;0.10;;;;;;;;;;5076515;28;20024;-83
2022/07/25 00:20:09;;;;;;;0.10;0.10;;;;;;;;;;5094910;28;20558;-86
2022/07/25 00:22:36;;;;;;;0.10;0.10;;;;;;;;;;5094410;28;20488;-85
2022/07/25 00:25:02;;;;;;;0.10;0.10;;;;;;;;;;5094478;28;20031;-85
2022/07/25 00:27:28;;;;;;;0.13;0.13;;;;;;;;;;5075921;28;20020;-85
2022/07/25 00:29:54;;;;;;;0.10;0.10;;;;;;;;;;5094106;28;20051;-85
2022/07/25 00:32:20;;;;;;;0.10;0.10;;;;;;;;;;5094080;28;20025;-85
2022/07/25 00:34:46;;;;;;;0.10;0.10;;;;;;;;;;5094426;28;20169;-86
2022/07/25 00:37:12;;;;;;;0.10;0.10;;;;;;;;;;5094697;28;20489;-86
2022/07/25 00:39:38;;;;;;;0.10;0.10;;;;;;;;;;5094295;28;20099;-86
2022/07/25 00:42:04;;;;;;;0.00;0.00;;;;;;;;;;5094190;28;20133;-86
2022/07/25 00:44:31;;;;;;;0.10;0.10;;;;;;;;;;5093968;28;20031;-87
2022/07/25 00:46:57;;;;;;;0.10;0.10;;;;;;;;;;5094112;28;20481;-87
2022/07/25 00:49:24;;;;;;;0.10;0.10;;;;;;;;;;5093796;28;20121;-87
2022/07/25 00:51:50;;;;;;;0.10;0.10;;;;;;;;;;5075934;28;20483;-86
2022/07/25 00:54:16;;;;;;;0.10;0.10;;;;;;;;;;5093770;28;20434;-87
2022/07/25 00:56:42;;;;;;;0.03;0.03;;;;;;;;;;5094160;28;20028;-86
2022/07/25 00:59:08;;;;;;;0.00;0.00;;;;;;;;;;5076323;28;20349;-86
2022/07/25 01:01:35;;;;;;;0.10;0.10;;;;;;;;;;5093753;28;20016;-86
2022/07/25 01:04:01;;;;;;;0.10;0.10;;;;;;;;;;5094005;28;20054;-86
2022/07/25 01:06:27;;;;;;;0.10;0.10;;;;;;;;;;5093492;28;20024;-88
2022/07/25 01:08:54;;;;;;;0.10;0.10;;;;;;;;;;5093591;28;20496;-83
2022/07/25 01:11:20;;;;;;;0.10;0.10;;;;;;;;;;5093244;28;20024;-87
2022/07/25 01:13:46;;;;;;;0.10;0.10;;;;;;;;;;5093693;28;20024;-85
2022/07/25 01:16:12;;;;;;;0.10;0.10;;;;;;;;;;5093901;28;20430;-86
2022/07/25 01:18:38;;;;;;;0.10;0.10;;;;;;;;;;5093865;28;20028;-85
2022/07/25 01:21:04;;;;;;;0.10;0.10;;;;;;;;;;5075146;28;20031;-85
2022/07/25 01:23:30;;;;;;;0.10;0.10;;;;;;;;;;5093202;28;20107;-85
2022/07/25 01:25:56;;;;;;;0.13;0.13;;;;;;;;;;5093203;28;20044;-85
2022/07/25 01:28:22;;;;;;;0.10;0.10;;;;;;;;;;5092856;28;20043;-87
2022/07/25 01:30:48;;;;;;;0.82;0.82;;;;;;;;;;5093248;28;20023;-86
2022/07/25 01:33:19;;;;;;;0.10;0.10;;;;;;;;;;5092945;28;20399;-87
2022/07/25 01:35:45;;;;;;;0.10;0.10;;;;;;;;;;5093215;28;20095;-84
2022/07/25 01:38:11;;;;;;;0.10;0.10;;;;;;;;;;5093522;28;20123;-86
2022/07/25 01:40:37;;;;;;;0.10;0.10;;;;;;;;;;5092790;28;20095;-85
2022/07/25 01:43:04;;;;;;;0.10;0.10;;;;;;;;;;5093073;28;20032;-86
2022/07/25 01:45:30;;;;;;;0.10;0.10;;;;;;;;;;5092756;28;20020;-86
2022/07/25 01:47:56;;;;;;;0.10;0.10;;;;;;;;;;5092855;28;20032;-84
2022/07/25 01:50:22;;;;;;;0.10;0.10;;;;;;;;;;5092692;28;20034;-83
2022/07/25 01:52:48;;;;;;;0.10;0.10;;;;;;;;;;5092858;28;20024;-88
2022/07/25 01:55:14;;;;;;;0.10;0.10;;;;;;;;;;5092492;28;20024;-86
2022/07/25 01:57:40;;;;;;;0.08;0.08;;;;;;;;;;5093197;28;20026;-87
2022/07/25 02:00:07;;;;;;;0.10;0.10;;;;;;;;;;5092692;28;20054;-87
2022/07/25 02:02:33;;;;;;;0.10;0.10;;;;;;;;;;5092412;28;20054;-86
2022/07/25 02:04:59;;;;;;;0.10;0.10;;;;;;;;;;5092698;28;20032;-86
2022/07/25 02:07:25;;;;;;;0.10;0.10;;;;;;;;;;5092368;28;20418;-85
2022/07/25 02:09:51;;;;;;;0.10;0.10;;;;;;;;;;5092422;28;20035;-86
2022/07/25 02:12:17;;;;;;;0.10;0.10;;;;;;;;;;5092296;28;20047;-86
2022/07/25 02:14:44;;;;;;;0.10;0.10;;;;;;;;;;5092473;28;20028;-84
2022/07/25 02:17:10;;;;;;;0.10;0.10;;;;;;;;;;5092695;28;20091;-86
2022/07/25 02:19:36;;;;;;;0.10;0.10;;;;;;;;;;5092189;28;20500;-87
2022/07/25 02:22:02;;;;;;;0.10;0.10;;;;;;;;;;5092393;28;20034;-87
2022/07/25 02:24:28;;;;;;;0.03;0.03;;;;;;;;;;5092041;28;20052;-86
2022/07/25 02:26:55;;;;;;;0.10;0.10;;;;;;;;;;5092339;28;20031;-84
2022/07/25 02:29:21;;;;;;;0.10;0.10;;;;;;;;;;5091771;28;20040;-84
2022/07/25 02:31:47;;;;;;;0.10;0.10;;;;;;;;;;5092136;28;20042;-85
2022/07/25 02:34:13;;;;;;;0.10;0.10;;;;;;;;;;5091996;28;20032;-76
2022/07/25 02:36:39;;;;;;;0.10;0.10;;;;;;;;;;5092335;28;20024;-84
2022/07/25 02:39:05;;;;;;;0.10;0.10;;;;;;;;;;5073410;28;20040;-86
2022/07/25 02:41:31;;;;;;;0.10;0.10;;;;;;;;;;5091612;28;20027;-84
2022/07/25 02:43:57;;;;;;;0.10;0.10;;;;;;;;;;5091828;28;20030;-84
2022/07/25 02:46:23;;;;;;;0.10;0.10;;;;;;;;;;5091695;28;20111;-86
2022/07/25 02:48:49;;;;;;;0.20;0.20;;;;;;;;;;5091735;28;20099;-84
2022/07/25 02:51:17;;;;;;;0.10;0.10;;;;;;;;;;5091512;28;20066;-84
2022/07/25 02:53:43;;;;;;;0.10;0.10;;;;;;;;;;5091747;28;20472;-77
2022/07/25 02:56:09;;;;;;;0.10;0.10;;;;;;;;;;5092023;28;20042;-85
2022/07/25 02:58:35;;;;;;;0.10;0.10;;;;;;;;;;5091437;28;20054;-86
2022/07/25 03:01:01;;;;;;;0.10;0.10;;;;;;;;;;5091594;28;20487;-83
2022/07/25 03:03:27;;;;;;;0.10;0.10;;;;;;;;;;5073155;28;20024;-85
2022/07/25 03:05:53;;;;;;;0.10;0.10;;;;;;;;;;5091397;28;20024;-84
2022/07/25 03:08:19;;;;;;;0.10;0.10;;;;;;;;;;5091222;28;20490;-85
2022/07/25 03:10:45;;;;;;;0.10;0.10;;;;;;;;;;5091559;28;20024;-85
2022/07/25 03:13:11;;;;;;;0.10;0.10;;;;;;;;;;5073693;28;20119;-85
2022/07/25 03:15:37;;;;;;;0.10;0.10;;;;;;;;;;5090947;28;20110;-83
2022/07/25 03:18:03;;;;;;;0.10;0.10;;;;;;;;;;5091477;28;20038;-83
2022/07/25 03:20:29;;;;;;;0.10;0.10;;;;;;;;;;5091086;28;20058;-84
2022/07/25 03:22:55;;;;;;;0.10;0.10;;;;;;;;;;5091329;28;20060;-86
2022/07/25 03:25:21;;;;;;;0.10;0.10;;;;;;;;;;5089954;28;20496;-84
2022/07/25 03:27:47;;;;;;;0.10;0.10;;;;;;;;;;5090849;28;20095;-85
2022/07/25 03:30:13;;;;;;;0.10;0.10;;;;;;;;;;5091316;28;20035;-82
2022/07/25 03:32:40;;;;;;;0.10;0.10;;;;;;;;;;5091212;28;20114;-86
2022/07/25 03:35:06;;;;;;;0.10;0.10;;;;;;;;;;5091139;28;20020;-85
2022/07/25 03:37:32;;;;;;;0.10;0.10;;;;;;;;;;5090871;28;20020;-86
2022/07/25 03:39:58;;;;;;;0.10;0.10;;;;;;;;;;5091138;28;20034;-84
2022/07/25 03:42:24;;;;;;;0.10;0.10;;;;;;;;;;5091147;28;20095;-83
2022/07/25 03:44:50;;;;;;;0.10;0.10;;;;;;;;;;5090878;28;20395;-86
2022/07/25 03:47:16;;;;;;;0.10;0.10;;;;;;;;;;5090962;28;20028;-86
2022/07/25 03:49:42;;;;;;;0.17;0.17;;;;;;;;;;5091077;28;20051;-84
2022/07/25 03:52:08;;;;;;;0.32;0.32;;;;;;;;;;5095413;28;20460;-87
2022/07/25 03:54:34;;;;;;;0.10;0.10;;;;;;;;;;5094770;28;20107;-86
2022/07/25 03:57:00;;;;;;;0.10;0.10;;;;;;;;;;5095124;28;20024;-86
2022/07/25 03:59:26;;;;;;;0.10;0.10;;;;;;;;;;5094927;28;20062;-85
2022/07/25 04:01:52;;;;;;;0.10;0.10;;;;;;;;;;5094931;28;20036;-84
2022/07/25 04:04:19;;;;;;;0.10;0.10;;;;;;;;;;5094841;28;20024;-83
2022/07/25 04:06:45;;;;;;;0.10;0.10;;;;;;;;;;5094762;28;20024;-84
2022/07/25 04:09:12;;;;;;;0.10;0.10;;;;;;;;;;5094943;28;20036;-80
2022/07/25 04:11:38;;;;;;;0.10;0.10;;;;;;;;;;5094478;28;20538;-81
2022/07/25 04:14:05;;;;;;;0.10;0.10;;;;;;;;;;5095118;28;20057;-85
2022/07/25 04:16:31;;;;;;;0.10;0.10;;;;;;;;;;5094441;28;20027;-81
2022/07/25 04:18:57;;;;;;;0.10;0.10;;;;;;;;;;5094470;28;20391;-86
2022/07/25 04:21:23;;;;;;;0.13;0.13;;;;;;;;;;5094607;28;20039;-85
2022/07/25 04:23:49;;;;;;;0.10;0.10;;;;;;;;;;5094369;28;20028;-85
2022/07/25 04:26:16;;;;;;;0.10;0.10;;;;;;;;;;5094533;28;20050;-81
2022/07/25 04:28:42;;;;;;;0.17;0.17;;;;;;;;;;5075936;28;20031;-85
2022/07/25 04:31:08;;;;;;;0.20;0.20;;;;;;;;;;5094396;28;20099;-85
2022/07/25 04:33:38;;;;;;;0.10;0.10;;;;;;;;;;5075820;28;20028;-83
2022/07/25 04:36:04;;;;;;;0.10;0.10;;;;;;;;;;5094310;28;20024;-84
2022/07/25 04:38:30;;;;;;;0.10;0.10;;;;;;;;;;5094034;28;20032;-85
2022/07/25 04:40:56;;;;;;;0.10;0.10;;;;;;;;;;5094129;28;20521;-81
2022/07/25 04:43:22;;;;;;;0.10;0.10;;;;;;;;;;5094170;28;20428;-81
2022/07/25 04:45:48;;;;;;;0.10;0.10;;;;;;;;;;5093740;28;20126;-87
2022/07/25 04:48:14;;;;;;;0.10;0.10;;;;;;;;;;5094212;28;20028;-85
2022/07/25 04:50:40;;;;;;;0.10;0.10;;;;;;;;;;5094049;28;20061;-86
2022/07/25 04:53:06;;;;;;;0.10;0.10;;;;;;;;;;5094018;28;20020;-83
2022/07/25 04:55:32;;;;;;;0.10;0.10;;;;;;;;;;5093558;28;20035;-87
2022/07/25 04:57:59;;;;;;;0.10;0.10;;;;;;;;;;5093849;28;20043;-84
2022/07/25 05:00:25;;;;;;;0.10;0.10;;;;;;;;;;5093542;28;20020;-80
2022/07/25 05:02:52;;;;;;;0.10;0.10;;;;;;;;;;5075349;28;20028;-82
2022/07/25 05:05:18;;;;;;;0.10;0.10;;;;;;;;;;5093927;28;20028;-85
2022/07/25 05:07:44;;;;;;;0.10;0.10;;;;;;;;;;5093588;28;20028;-88
2022/07/25 05:10:10;;;;;;;0.10;0.10;;;;;;;;;;5093814;28;20046;-83
2022/07/25 05:12:37;;;;;;;0.10;0.10;;;;;;;;;;5092589;28;20024;-87
2022/07/25 05:15:03;;;;;;;0.10;0.10;;;;;;;;;;5090109;28;20036;-83
2022/07/25 05:17:29;;;;;;;0.10;0.10;;;;;;;;;;5092972;28;20052;-81
2022/07/25 05:19:57;;;;;;;0.20;0.20;;;;;;;;;;5093437;28;20056;-86
2022/07/25 05:22:23;;;;;;;0.10;0.10;;;;;;;;;;5093094;28;20024;-86
2022/07/25 05:24:49;;;;;;;0.10;0.10;;;;;;;;;;5087500;28;20040;-87
2022/07/25 05:27:15;;;;;;;0.10;0.10;;;;;;;;;;5088068;28;20024;-85
2022/07/25 05:29:41;;;;;;;0.10;0.10;;;;;;;;;;5087151;28;20586;-84
2022/07/25 05:32:07;;;;;;;0.10;0.10;;;;;;;;;;5086871;28;20439;-86
2022/07/25 05:34:33;;;;;;;0.10;0.10;;;;;;;;;;5086560;28;20488;-83
2022/07/25 05:36:59;;;;;;;0.10;0.10;;;;;;;;;;5086411;28;20028;-87
2022/07/25 05:39:25;;;;;;;0.10;0.10;;;;;;;;;;5087228;28;20020;-81
2022/07/25 05:41:51;;;;;;;0.10;0.10;;;;;;;;;;5086645;28;20062;-89
2022/07/25 05:44:17;;;;;;;0.10;0.10;;;;;;;;;;5087087;28;20385;-84
2022/07/25 05:46:43;;;;;;;0.10;0.10;;;;;;;;;;5086512;28;20024;-86
2022/07/25 05:49:09;;;;;;;0.10;0.10;;;;;;;;;;5086305;28;20111;-89
2022/07/25 05:51:35;;;;;;;0.10;0.10;;;;;;;;;;5086412;28;20024;-90
2022/07/25 05:54:01;;;;;;;0.10;0.10;;;;;;;;;;5091004;28;20035;-90
2022/07/25 05:56:28;;;;;;;0.10;0.10;;;;;;;;;;5092870;28;20472;-86
2022/07/25 05:58:54;;;;;;;0.10;0.10;;;;;;;;;;5092320;28;20430;-85
2022/07/25 06:01:20;;;;;;;0.10;0.10;;;;;;;;;;5092725;28;20020;-92
2022/07/25 06:03:46;;;;;;;0.10;0.10;;;;;;;;;;5092608;28;20089;-88
2022/07/25 06:06:12;;;;;;;0.10;0.10;;;;;;;;;;5087048;28;20056;-85
2022/07/25 06:08:39;;;;;;;0.10;0.10;;;;;;;;;;5085599;28;20556;-86
2022/07/25 06:11:06;;;;;;;0.10;0.10;;;;;;;;;;5085973;28;20035;-88
2022/07/25 06:13:33;;;;;;;0.10;0.10;;;;;;;;;;5085288;28;20027;-83
2022/07/25 06:15:59;;;;;;;0.10;0.10;;;;;;;;;;5086439;28;20103;-89
2022/07/25 06:18:25;;;;;;;0.20;0.20;;;;;;;;;;5085959;28;20036;-89
2022/07/25 06:20:51;;;;;;;0.10;0.10;;;;;;;;;;5085732;28;20039;-85
2022/07/25 06:23:17;;;;;;;0.10;0.10;;;;;;;;;;5068193;28;20100;-85
2022/07/25 06:25:44;;;;;;;0.10;0.10;;;;;;;;;;5085613;28;20024;-85
2022/07/25 06:28:10;;;;;;;0.10;0.10;;;;;;;;;;5085501;28;20028;-85
2022/07/25 06:30:36;;;;;;;0.10;0.10;;;;;;;;;;5085361;28;20041;-85
2022/07/25 06:33:02;;;;;;;0.10;0.10;;;;;;;;;;5085497;28;20036;-85
2022/07/25 06:35:28;;;;;;;0.10;0.10;;;;;;;;;;5088467;28;20024;-86
2022/07/25 06:37:54;;;;;;;0.10;0.10;;;;;;;;;;5085730;28;20093;-83
2022/07/25 06:40:20;;;;;;;0.10;0.10;;;;;;;;;;5089788;28;20404;-85
2022/07/25 06:42:46;;;;;;;0.10;0.10;;;;;;;;;;5091891;28;20095;-87
2022/07/25 06:45:13;;;;;;;0.10;0.10;;;;;;;;;;5099906;28;20035;-82
2022/07/25 06:47:40;;;;;;;0.10;0.10;;;;;;;;;;5091403;28;20391;-87
2022/07/25 06:50:07;;;;;;;0.10;0.10;;;;;;;;;;5091033;28;20123;-87
2022/07/25 06:52:34;;;;;;;0.10;0.10;;;;;;;;;;5091039;28;20407;-85
2022/07/25 06:55:00;;;;;;;0.10;0.10;;;;;;;;;;5091733;28;20032;-87
2022/07/25 06:57:26;;;;;;;0.10;0.10;;;;;;;;;;5091394;28;20023;-85
2022/07/25 06:59:52;;;;;;;0.10;0.10;;;;;;;;;;5090773;28;20024;-86
2022/07/25 07:02:18;;;;;;;0.10;0.10;;;;;;;;;;5073080;28;20069;-84
2022/07/25 07:04:44;;;;;;;0.10;0.10;;;;;;;;;;5091047;28;20436;-83
2022/07/25 07:07:10;;;;;;;0.17;0.17;;;;;;;;;;5092703;28;20016;-83
2022/07/25 07:09:36;;;;;;;0.10;0.10;;;;;;;;;;5076920;28;20032;-83
2022/07/25 07:12:03;;;;;;;0.10;0.10;;;;;;;;;;5091181;28;20028;-82
2022/07/25 07:14:29;;;;;;;0.10;0.10;;;;;;;;;;5073437;28;20036;-82
2022/07/25 07:16:55;;;;;;;0.10;0.10;;;;;;;;;;5091022;28;20024;-83
2022/07/25 07:19:21;;;;;;;0.10;0.10;;;;;;;;;;5073247;28;20110;-83
2022/07/25 07:21:50;;;;;;;0.10;0.10;;;;;;;;;;5091494;28;20031;-83
2022/07/25 07:24:16;;;;;;;0.10;0.10;;;;;;;;;;5090577;28;20024;-82
2022/07/25 07:26:42;;;;;;;0.10;0.10;;;;;;;;;;5090637;28;20416;-85
2022/07/25 07:29:08;;;;;;;0.10;0.10;;;;;;;;;;5090317;28;20127;-83
2022/07/25 07:31:34;;;;;;;0.10;0.10;;;;;;;;;;5091793;28;20024;-87
2022/07/25 07:34:00;;;;;;;0.10;0.10;;;;;;;;;;5111543;28;20035;-87
2022/07/25 07:36:26;;;;;;;0.10;0.10;;;;;;;;;;5111663;28;20490;-88
2022/07/25 07:38:52;;;;;;;0.10;0.10;;;;;;;;;;5111260;28;20024;-88
2022/07/25 07:41:18;;;;;;;0.20;0.20;;;;;;;;;;5111824;28;20036;-90
2022/07/25 07:43:44;;;;;;;0.10;0.10;;;;;;;;;;5111277;28;20098;-90
2022/07/25 07:46:11;;;;;;;0.10;0.10;;;;;;;;;;5111566;28;20035;-88
2022/07/25 07:48:37;;;;;;;0.10;0.10;;;;;;;;;;5110972;28;20556;-89
2022/07/25 07:51:03;;;;;;;0.10;0.10;;;;;;;;;;5111384;28;20032;-88
2022/07/25 07:56:15;;;;;;;0.10;0.10;;;;;;;;;;5111411;28;20559;-88
2022/07/25 07:58:41;;;;;;;0.10;0.10;;;;;;;;;;5110993;28;20108;-88
2022/07/25 08:01:07;;;;;;;0.10;0.10;;;;;;;;;;5111400;28;20150;-85
2022/07/25 08:03:33;;;;;;;0.13;0.13;;;;;;;;;;5111072;28;20024;-87
2022/07/25 08:05:59;;;;;;;0.10;0.10;;;;;;;;;;5111381;28;20055;-90
2022/07/25 08:08:25;;;;;;;0.10;0.10;;;;;;;;;;5111273;28;20015;-86
2022/07/25 08:10:51;;;;;;;0.10;0.10;;;;;;;;;;5111061;28;20078;-88
2022/07/25 08:13:17;;;;;;;0.10;0.10;;;;;;;;;;5111530;28;20024;-89
2022/07/25 08:15:44;;;;;;;0.10;0.10;;;;;;;;;;5110994;28;20098;-89
2022/07/25 08:18:10;;;;;;;0.10;0.10;;;;;;;;;;5111319;28;20634;-83
2022/07/25 08:20:37;;;;;;;0.10;0.10;;;;;;;;;;5111401;28;20024;-84
2022/07/25 08:23:03;;;;;;;0.10;0.10;;;;;;;;;;5111104;28;20353;-81
2022/07/25 08:25:30;;;;;;;0.10;0.10;;;;;;;;;;5110937;28;20094;-82
2022/07/25 08:27:56;;;;;;;0.10;0.10;;;;;;;;;;5110979;28;20464;-83
2022/07/25 08:30:22;;;;;;;0.10;0.10;;;;;;;;;;5092811;28;20122;-82
2022/07/25 08:32:55;;;;;;;0.00;0.00;;;;;;;;;;5111034;28;20024;-83
2022/07/25 08:35:22;;;;;;;0.10;0.10;;;;;;;;;;5111512;28;20470;-83
2022/07/25 08:37:48;;;;;;;0.10;0.10;;;;;;;;;;5114324;28;20368;-83
2022/07/25 08:40:16;;;;;;;0.10;0.10;;;;;;;;;;5114753;28;20016;-81
2022/07/25 08:42:42;;;;;;;0.10;0.10;;;;;;;;;;5114495;28;20031;-79
2022/07/25 08:45:11;;;;;;;0.00;0.00;;;;;;;;;;5114899;28;20457;-80
2022/07/25 08:47:37;;;;;;;0.10;0.10;;;;;;;;;;5114302;28;20027;-80
2022/07/25 08:50:05;;;;;;;0.10;0.10;;;;;;;;;;5114481;28;20032;-83
2022/07/25 08:52:34;;;;;;;0.10;0.10;;;;;;;;;;5114149;28;20387;-80
2022/07/25 08:55:00;;;;;;;0.10;0.10;;;;;;;;;;5114462;28;20077;-81
2022/07/25 08:57:26;;;;;;;0.10;0.10;;;;;;;;;;5114163;28;20028;-81
2022/07/25 08:59:52;;;;;;;0.10;0.10;;;;;;;;;;5114248;28;20019;-81
2022/07/25 09:02:18;;;;;;;0.20;0.20;;;;;;;;;;5114281;28;20360;-81
2022/07/25 09:04:44;;;;;;;0.10;0.10;;;;;;;;;;5114001;28;20033;-80
2022/07/25 09:07:10;;;;;;;0.10;0.10;;;;;;;;;;5114127;28;20058;-80
2022/07/25 09:09:38;;;;;;;0.10;0.10;;;;;;;;;;5113681;28;20059;-81
2022/07/25 09:12:05;;;;;;;0.10;0.10;;;;;;;;;;5114056;28;20103;-81
2022/07/25 09:14:40;;;;;;;0.10;0.10;;;;;;;;;;5113743;28;20034;-80
2022/07/25 09:17:06;;;;;;;0.10;0.10;;;;;;;;;;5113988;28;20024;-81
2022/07/25 09:19:32;;;;;;;0.10;0.10;;;;;;;;;;5113560;28;20020;-80
2022/07/25 09:21:58;;;;;;;0.10;0.10;;;;;;;;;;5113999;28;20356;-81
2022/07/25 09:24:25;;;;;;;0.10;0.10;;;;;;;;;;5113697;28;20060;-81
2022/07/25 09:26:52;;;;;;;0.20;0.20;;;;;;;;;;5113680;28;20069;-82
2022/07/25 09:29:20;;;;;;;0.10;0.10;;;;;;;;;;5113249;28;20036;-79
2022/07/25 09:31:46;;;;;;;0.10;0.10;;;;;;;;;;5113257;28;20028;-80
2022/07/25 09:34:16;;;;;;;0.10;0.10;;;;;;;;;;5113750;28;20031;-80
2022/07/25 09:36:52;;;;;;;0.10;0.10;;;;;;;;;;5113426;28;20438;-82
2022/07/25 09:39:18;;;;;;;0.10;0.10;;;;;;;;;;5113552;28;20053;-81
2022/07/25 09:41:44;;;;;;;0.10;0.10;;;;;;;;;;5113051;28;20516;-82
2022/07/25 09:44:17;;;;;;;0.10;0.10;;;;;;;;;;5113356;28;20032;-84
2022/07/25 09:46:43;;;;;;;0.10;0.10;;;;;;;;;;5113296;28;20106;-83
2022/07/25 09:49:13;;;;;;;0.10;0.10;;;;;;;;;;5113457;28;20074;-83
2022/07/25 09:51:39;;;;;;;0.10;0.10;;;;;;;;;;5112997;28;20066;-83
2022/07/25 09:54:05;;;;;;;0.10;0.10;;;;;;;;;;5113366;28;20027;-83
2022/07/25 09:56:34;;;;;;;0.10;0.10;;;;;;;;;;5112832;28;20059;-82
2022/07/25 09:59:00;;;;;;;0.10;0.10;;;;;;;;;;5113285;28;20061;-82
2022/07/25 10:01:28;;;;;;;0.10;0.10;;;;;;;;;;5113231;28;20020;-83
2022/07/25 10:04:14;;;;;;;0.10;0.10;;;;;;;;;;5113215;28;20051;-81
2022/07/25 10:06:40;;;;;;;;;;;;;;;;;;5113329;28;20024;-84
2022/07/25 10:09:06;;;;;;;;;;;;;;;;;;5115133;28;19945;-83
2022/07/25 10:11:31;;;;;;;;;;;;;;;;;;5094831;28;19904;-82
2022/07/25 10:14:08;;;;;;;0.10;0.10;;;;;;;;;;5112845;28;19900;-82
2022/07/25 10:16:44;;;;;;;0.10;0.10;;;;;;;;;;5094253;28;20057;-81
2022/07/25 10:19:10;;;;;;;0.10;0.10;;;;;;;;;;5112784;28;20020;-83
2022/07/25 10:21:36;;;;;;;0.20;0.20;;;;;;;;;;5112318;28;20019;-83
2022/07/25 10:24:06;;;;;;;0.10;0.10;;;;;;;;;;5113046;28;20505;-83
2022/07/25 10:26:34;;;;;;;0.10;0.10;;;;;;;;;;5112448;28;20111;-84
2022/07/25 10:29:01;;;;;;;0.10;0.10;;;;;;;;;;5112119;28;20028;-82
2022/07/25 10:31:33;;;;;;;0.10;0.10;;;;;;;;;;5112239;28;20035;-83
2022/07/25 10:33:59;;;;;;;0.10;0.10;;;;;;;;;;5093992;28;20496;-82
2022/07/25 10:36:28;;;;;;;0.10;0.10;;;;;;;;;;5112736;28;20028;-83
2022/07/25 10:38:59;;;;;;;0.10;0.10;;;;;;;;;;5112706;28;20498;-82
2022/07/25 10:41:26;;;;;;;0.10;0.10;;;;;;;;;;5112617;28;20024;-83
2022/07/25 10:43:55;;;;;;;0.10;0.10;;;;;;;;;;5112321;28;20023;-83
2022/07/25 10:46:22;;;;;;;0.10;0.10;;;;;;;;;;5112220;28;20027;-83
2022/07/25 10:49:01;;;;;;;0.10;0.10;;;;;;;;;;5111957;28;20043;-84
2022/07/25 10:51:29;;;;;;;0.10;0.10;;;;;;;;;;5112142;28;20051;-84
2022/07/25 10:53:55;;;;;;;0.10;0.10;;;;;;;;;;5112488;28;20034;-82
2022/07/25 10:56:22;;;;;;;0.10;0.10;;;;;;;;;;5112133;28;20027;-86
2022/07/25 10:58:50;;;;;;;0.10;0.10;;;;;;;;;;5111246;28;20032;-85
2022/07/25 11:01:20;;;;;;;0.10;0.10;;;;;;;;;;5111991;28;20094;-85
2022/07/25 11:03:46;;;;;;;0.10;0.10;;;;;;;;;;5111733;28;20023;-85
2022/07/25 11:06:14;;;;;;;0.10;0.10;;;;;;;;;;5111721;28;20024;-88
2022/07/25 11:08:40;;;;;;;0.10;0.10;;;;;;;;;;5111635;28;20070;-85
2022/07/25 11:11:07;;;;;;;0.13;0.13;;;;;;;;;;5093691;28;20032;-86
2022/07/25 11:13:37;;;;;;;0.10;0.10;;;;;;;;;;5111522;28;20023;-87
2022/07/25 11:16:03;;;;;;;0.10;0.10;;;;;;;;;;5111806;28;20534;-86
2022/07/25 11:18:37;;;;;;;0.10;0.10;;;;;;;;;;5111686;28;20027;-81
2022/07/25 11:21:04;;;;;;;0.10;0.10;;;;;;;;;;5111746;28;20074;-82
2022/07/25 11:23:30;;;;;;;0.10;0.10;;;;;;;;;;5111525;28;20093;-82
2022/07/25 11:26:09;;;;;;;0.10;0.10;;;;;;;;;;5111884;28;20545;-82
2022/07/25 11:28:45;;;;;;;0.10;0.10;;;;;;;;;;5111133;28;20035;-83
2022/07/25 11:31:13;;;;;;;0.10;0.10;;;;;;;;;;5112292;28;20024;-81
2022/07/25 11:33:40;;;;;;;0.10;0.10;;;;;;;;;;5111252;28;20047;-81
2022/07/25 11:36:06;;;;;;;0.10;0.10;;;;;;;;;;5111576;28;20530;-85
2022/07/25 11:38:32;;;;;;;0.10;0.10;;;;;;;;;;5111168;28;20030;-85
2022/07/25 11:40:58;;;;;;;0.10;0.10;;;;;;;;;;5111769;28;20023;-84
2022/07/25 11:43:25;;;;;;;0.10;0.10;;;;;;;;;;5111945;28;20433;-83
2022/07/25 11:46:02;;;;;;;0.10;0.10;;;;;;;;;;5111283;28;20024;-83
2022/07/25 11:48:35;;;;;;;0.10;0.10;;;;;;;;;;5111598;28;20041;-83
2022/07/25 11:51:08;;;;;;;0.10;0.10;;;;;;;;;;5111570;28;20028;-87
2022/07/25 11:53:38;;;;;;;0.10;0.10;;;;;;;;;;5111286;28;20450;-84
2022/07/25 11:56:18;;;;;;;0.20;0.20;;;;;;;;;;5111359;28;20028;-85
2022/07/25 11:59:05;;;;;;;0.10;0.10;;;;;;;;;;5110931;28;20024;-84
2022/07/25 12:01:35;;;;;;;0.10;0.10;;;;;;;;;;5093900;28;20024;-86
2022/07/25 12:04:08;;;;;;;0.10;0.10;;;;;;;;;;5089204;28;20035;-86
2022/07/25 12:06:34;;;;;;;0.10;0.10;;;;;;;;;;5091432;28;20031;-89
2022/07/25 12:09:09;;;;;;;0.10;0.10;;;;;;;;;;5091430;28;20479;-87
2022/07/25 12:11:36;;;;;;;0.10;0.10;;;;;;;;;;5091698;28;20031;-87
2022/07/25 12:14:03;;;;;;;0.20;0.20;;;;;;;;;;5098696;28;20051;-87
2022/07/25 12:16:29;;;;;;;0.20;0.20;;;;;;;;;;5094215;28;20020;-85
2022/07/25 12:18:55;;;;;;;0.10;0.10;;;;;;;;;;5094523;28;20024;-85
2022/07/25 12:21:21;;;;;;;0.20;0.20;;;;;;;;;;5093933;28;20024;-84
2022/07/25 12:23:47;;;;;;;0.10;0.10;;;;;;;;;;5093576;28;20506;-86
2022/07/25 12:26:13;;;;;;;0.10;0.10;;;;;;;;;;5098219;28;20024;-87
2022/07/25 12:28:40;;;;;;;0.10;0.10;;;;;;;;;;5099506;28;20491;-85
2022/07/25 12:31:06;;;;;;;0.10;0.10;;;;;;;;;;5099973;28;20020;-87
2022/07/25 12:33:32;;;;;;;0.10;0.10;;;;;;;;;;5090813;28;20073;-85
2022/07/25 12:35:59;;;;;;;0.10;0.10;;;;;;;;;;5094074;28;20049;-87
2022/07/25 12:38:25;;;;;;;0.10;0.10;;;;;;;;;;5094718;28;20082;-86
2022/07/25 12:40:51;;;;;;;0.10;0.10;;;;;;;;;;5094090;28;20046;-88
2022/07/25 12:43:18;;;;;;;0.10;0.10;;;;;;;;;;5094281;28;20028;-88
2022/07/25 12:45:44;;;;;;;0.10;0.10;;;;;;;;;;5093961;28;20483;-86
2022/07/25 12:48:12;;;;;;;0.10;0.10;;;;;;;;;;5095721;28;20024;-86
2022/07/25 12:50:38;;;;;;;0.10;0.10;;;;;;;;;;5094373;28;20078;-88
2022/07/25 12:53:04;;;;;;;0.10;0.10;;;;;;;;;;5094215;28;20024;-87
2022/07/25 12:55:31;;;;;;;0.10;0.10;;;;;;;;;;5093650;28;20062;-86
2022/07/25 12:57:57;;;;;;;0.10;0.10;;;;;;;;;;5094366;28;20429;-87
2022/07/25 13:00:23;;;;;;;0.10;0.10;;;;;;;;;;5093993;28;20020;-88
2022/07/25 13:02:50;;;;;;;0.10;0.10;;;;;;;;;;5093712;28;20387;-84
2022/07/25 13:05:17;;;;;;;0.10;0.10;;;;;;;;;;5093899;28;20028;-86
2022/07/25 13:07:43;;;;;;;0.10;0.10;;;;;;;;;;5093565;28;20027;-86
2022/07/25 13:10:11;;;;;;;0.10;0.10;;;;;;;;;;5093558;28;20032;-87
2022/07/25 13:12:37;;;;;;;0.10;0.10;;;;;;;;;;5075842;28;20107;-86
2022/07/25 13:15:03;;;;;;;0.10;0.10;;;;;;;;;;5093689;28;20081;-89
2022/07/25 13:17:30;;;;;;;0.10;0.10;;;;;;;;;;5093532;28;20020;-83
2022/07/25 13:19:56;;;;;;;0.10;0.10;;;;;;;;;;5093944;28;20020;-87
2022/07/25 13:22:23;;;;;;;0.10;0.10;;;;;;;;;;5093170;28;20031;-84
2022/07/25 13:24:49;;;;;;;0.10;0.10;;;;;;;;;;5093267;28;20024;-84
2022/07/25 13:27:17;;;;;;;0.10;0.10;;;;;;;;;;5093576;28;20020;-82
2022/07/25 13:29:43;;;;;;;0.10;0.10;;;;;;;;;;5092869;28;20070;-85
2022/07/25 13:32:09;;;;;;;0.10;0.10;;;;;;;;;;5093519;28;20480;-85
2022/07/25 13:34:35;;;;;;;0.10;0.10;;;;;;;;;;5092968;28;20027;-86
2022/07/25 13:37:01;;;;;;;0.10;0.10;;;;;;;;;;5093055;28;20041;-81
2022/07/25 13:39:27;;;;;;;0.10;0.10;;;;;;;;;;5092275;28;20028;-87
2022/07/25 13:41:53;;;;;;;0.10;0.10;;;;;;;;;;5092504;28;20044;-84
2022/07/25 13:44:19;;;;;;;0.10;0.10;;;;;;;;;;5093056;28;20074;-83
2022/07/25 13:46:48;;;;;;;0.52;0.52;;;;;;;;;;5092659;28;20383;-85
2022/07/25 13:49:15;;;;;;;0.10;0.10;;;;;;;;;;5092380;28;20115;-89
2022/07/25 13:51:41;;;;;;;0.10;0.10;;;;;;;;;;5074268;28;20380;-88
2022/07/25 13:54:07;;;;;;;0.10;0.10;;;;;;;;;;5092934;28;20480;-88
2022/07/25 13:56:33;;;;;;;0.10;0.10;;;;;;;;;;5091980;28;20107;-84
2022/07/25 13:58:59;;;;;;;0.10;0.10;;;;;;;;;;5092231;28;20055;-86
2022/07/25 14:01:27;;;;;;;0.17;0.17;;;;;;;;;;5092900;28;20035;-86
2022/07/25 14:03:53;;;;;;;0.10;0.10;;;;;;;;;;5092469;28;20050;-88
2022/07/25 14:06:20;;;;;;;0.10;0.10;;;;;;;;;;5092650;28;20028;-85
2022/07/25 14:08:46;;;;;;;0.10;0.10;;;;;;;;;;5074252;28;20020;-84
2022/07/25 14:11:12;;;;;;;0.10;0.10;;;;;;;;;;5092603;28;20074;-85
2022/07/25 14:13:38;;;;;;;0.10;0.10;;;;;;;;;;5092159;28;20024;-86
2022/07/25 14:16:05;;;;;;;0.10;0.10;;;;;;;;;;5091836;28;20116;-83
2022/07/25 14:18:31;;;;;;;0.10;0.10;;;;;;;;;;5071964;28;20052;-86
2022/07/25 14:20:57;;;;;;;0.10;0.10;;;;;;;;;;5072241;28;20028;-85
2022/07/25 14:23:23;;;;;;;0.10;0.10;;;;;;;;;;5072128;28;20024;-84
2022/07/25 14:25:49;;;;;;;0.10;0.10;;;;;;;;;;5071821;28;20511;-85
2022/07/25 14:28:15;;;;;;;0.10;0.10;;;;;;;;;;5078766;28;20028;-85
2022/07/25 14:30:42;;;;;;;0.10;0.10;;;;;;;;;;5092009;28;20042;-86
2022/07/25 14:33:08;;;;;;;0.10;0.10;;;;;;;;;;5092082;28;20357;-83
2022/07/25 14:35:34;;;;;;;0.10;0.10;;;;;;;;;;5091318;28;20031;-86
2022/07/25 14:38:00;;;;;;;0.10;0.10;;;;;;;;;;5092291;28;20024;-84
2022/07/25 14:40:26;;;;;;;0.10;0.10;;;;;;;;;;5092356;28;20024;-85
2022/07/25 14:42:52;;;;;;;0.10;0.10;;;;;;;;;;5091421;28;20024;-86